createdAt,value
2018-01-15T00:00:05.438Z,968.05
2018-01-15T00:15:04.840Z,968.03
2018-01-15T00:30:06.166Z,968.13
2018-01-15T00:45:04.741Z,968.35
2018-01-15T01:00:06.400Z,968.86
2018-01-15T01:15:05.271Z,968.91
2018-01-15T01:30:05.528Z,968.67
2018-01-15T01:45:05.165Z,968.19
2018-01-15T02:00:05.247Z,968.03
2018-01-15T02:15:04.733Z,968.56
2018-01-15T02:30:04.831Z,969.04
2018-01-15T02:45:08.846Z,968.59
2018-01-15T03:00:05.322Z,968.37
2018-01-15T03:15:05.424Z,968.13
2018-01-15T03:30:05.216Z,968.32
2018-01-15T03:45:04.634Z,968.08
2018-01-15T04:00:04.485Z,968.27
2018-01-15T04:15:04.423Z,968.62
2018-01-15T04:30:05.065Z,969.07
2018-01-15T04:45:04.529Z,968.56
2018-01-15T05:00:05.099Z,968.96
2018-01-15T05:15:05.212Z,969.31
2018-01-15T05:30:04.505Z,969.23
2018-01-15T05:45:06.006Z,969.42
2018-01-15T06:00:04.945Z,969.63
2018-01-15T06:15:04.811Z,969.61
2018-01-15T06:30:04.455Z,969.71
2018-01-15T06:45:05.290Z,962.38
2018-01-15T07:00:04.501Z,962.49
2018-01-15T07:15:04.395Z,969.74
2018-01-15T07:30:04.494Z,969.23
2018-01-15T07:45:04.483Z,968.96
2018-01-15T08:00:04.420Z,968.83
2018-01-15T08:15:04.867Z,968.43
2018-01-15T08:30:04.509Z,967.81
2018-01-15T08:45:07.987Z,964.95
2018-01-15T09:00:04.364Z,964.36
2018-01-15T09:15:05.775Z,964.71
2018-01-15T09:30:05.965Z,964.65
2018-01-15T09:45:05.355Z,963.98
2018-01-15T10:00:06.337Z,963.15
2018-01-15T10:15:04.770Z,962.94
2018-01-15T10:30:08.075Z,962.41
2018-01-15T10:45:06.012Z,961.98
2018-01-15T11:00:04.396Z,961.71
2018-01-15T11:15:05.459Z,961.58
2018-01-15T11:30:04.539Z,961.07
2018-01-15T11:45:04.412Z,960.32
2018-01-15T12:00:04.774Z,959.22
2018-01-15T12:15:04.644Z,959.03
2018-01-15T12:30:05.224Z,958.6
2018-01-15T12:45:05.096Z,958.39
2018-01-15T13:00:04.495Z,958.07
2018-01-15T13:15:04.894Z,957.72
2018-01-15T13:30:04.796Z,957.43
2018-01-15T13:45:04.637Z,957.16
2018-01-15T14:00:04.509Z,957.11
2018-01-15T14:15:14.932Z,956.81
2018-01-15T14:30:04.472Z,956.2
2018-01-15T14:45:07.991Z,955.82
2018-01-15T15:00:07.426Z,955.23
2018-01-15T15:15:06.282Z,955.13
2018-01-15T15:30:04.432Z,955.07
2018-01-15T15:45:04.369Z,955.45
2018-01-15T16:00:04.748Z,954.7
2018-01-15T16:15:11.858Z,954.56
2018-01-15T16:30:05.453Z,954.32
2018-01-15T16:45:04.819Z,954.54
2018-01-15T17:00:05.247Z,954.35
2018-01-15T17:15:04.732Z,954.24
2018-01-15T17:30:04.767Z,953.98
2018-01-15T17:45:05.523Z,954.06
2018-01-15T18:00:04.671Z,953.63
2018-01-15T18:15:05.060Z,953.39
2018-01-15T18:30:05.493Z,953.01
2018-01-15T18:45:06.014Z,952.37
2018-01-15T19:00:04.467Z,952.02
2018-01-15T19:15:05.394Z,951.51
2018-01-15T19:30:04.476Z,951.62
2018-01-15T19:45:05.489Z,952
2018-01-15T20:00:05.445Z,951.62
2018-01-15T20:15:10.668Z,951.35
2018-01-15T20:30:04.826Z,951.33
2018-01-15T20:45:05.760Z,951.67
2018-01-15T21:00:05.740Z,951.62
2018-01-15T21:15:04.622Z,951.06
2018-01-15T21:30:15.811Z,950.68
2018-01-15T21:45:05.470Z,950.63
2018-01-15T22:00:12.124Z,950.39
2018-01-15T22:15:05.193Z,949.94
2018-01-15T22:30:05.898Z,949.94
2018-01-15T22:45:05.232Z,949.61
2018-01-15T23:00:04.545Z,949.24
2018-01-15T23:15:05.289Z,949.27
2018-01-15T23:30:04.905Z,949.11
2018-01-15T23:45:05.141Z,956.07
